Terminal Aerodrome Forecast
Issued by NWS

Home | Current Version | Previous Version | Text Only | Print | Product List | Glossary On
Versions: 1 2 3 4 5 6 7 8 9 10 11 12 13 14 15
992
FTUS43 KICT 071140 AAB
TAFRSL
TAF AMD
KRSL 071140Z 0712/0812 05012KT P6SM SCT025 OVC070
      TEMPO 0714/0718 5SM -SN BR OVC015
     FM071800 01015G22KT P6SM OVC025
     FM080200 35012KT P6SM BKN035
     FM080400 34010KT P6SM SCT150=

USA.gov is the U.S. government's official web portal to all federal, state and local government web resources and services.